sensor_id;sensor_type;location;lat;lon;timestamp;pressure;altitude;pressure_sealevel;temperature;humidity
21276;BME280;36472;52.170;20.884;2023-04-15T00:01:28;99657.25;;;12.19;71.65
21276;BME280;36472;52.170;20.884;2023-04-15T00:04:00;99645.63;;;12.21;71.62
21276;BME280;36472;52.170;20.884;2023-04-15T00:06:29;99654.75;;;12.17;72.01
21276;BME280;36472;52.170;20.884;2023-04-15T00:08:59;99652.56;;;12.22;72.11
21276;BME280;36472;52.170;20.884;2023-04-15T00:11:29;99656.56;;;12.16;73.29
21276;BME280;36472;52.170;20.884;2023-04-15T00:13:58;99652.25;;;12.15;74.21
21276;BME280;36472;52.170;20.884;2023-04-15T00:16:27;99653.59;;;12.10;75.36
21276;BME280;36472;52.170;20.884;2023-04-15T00:18:56;99652.38;;;12.14;75.37
21276;BME280;36472;52.170;20.884;2023-04-15T00:21:25;99657.59;;;12.04;75.46
21276;BME280;36472;52.170;20.884;2023-04-15T00:23:55;99653.97;;;12.05;75.92
21276;BME280;36472;52.170;20.884;2023-04-15T00:26:25;99653.84;;;12.07;75.83
21276;BME280;36472;52.170;20.884;2023-04-15T00:28:55;99649.03;;;11.91;76.89
21276;BME280;36472;52.170;20.884;2023-04-15T00:31:25;99645.66;;;11.89;77.50
21276;BME280;36472;52.170;20.884;2023-04-15T00:33:54;99644.94;;;11.87;78.55
21276;BME280;36472;52.170;20.884;2023-04-15T00:36:23;99640.31;;;11.79;79.42
21276;BME280;36472;52.170;20.884;2023-04-15T00:38:52;99640.56;;;11.76;80.08
21276;BME280;36472;52.170;20.884;2023-04-15T00:41:21;99643.78;;;11.79;80.20
21276;BME280;36472;52.170;20.884;2023-04-15T00:43:52;99638.63;;;11.78;80.00
21276;BME280;36472;52.170;20.884;2023-04-15T00:46:22;99634.47;;;11.75;80.22
21276;BME280;36472;52.170;20.884;2023-04-15T00:48:52;99636.78;;;11.69;81.07
21276;BME280;36472;52.170;20.884;2023-04-15T00:51:22;99634.25;;;11.67;81.15
21276;BME280;36472;52.170;20.884;2023-04-15T00:53:51;99632.75;;;11.53;82.42
21276;BME280;36472;52.170;20.884;2023-04-15T00:56:21;99631.19;;;11.51;82.85
21276;BME280;36472;52.170;20.884;2023-04-15T00:58:52;99637.81;;;11.45;83.77
21276;BME280;36472;52.170;20.884;2023-04-15T01:01:23;99634.22;;;11.46;84.23
21276;BME280;36472;52.170;20.884;2023-04-15T01:03:55;99638.63;;;11.46;84.11
21276;BME280;36472;52.170;20.884;2023-04-15T01:06:24;99638.03;;;11.42;84.30
21276;BME280;36472;52.170;20.884;2023-04-15T01:08:54;99634.22;;;11.46;83.38
21276;BME280;36472;52.170;20.884;2023-04-15T01:11:25;99637.03;;;11.54;83.44
21276;BME280;36472;52.170;20.884;2023-04-15T01:13:58;99635.63;;;11.50;82.03
21276;BME280;36472;52.170;20.884;2023-04-15T01:16:27;99639.22;;;11.49;82.19
21276;BME280;36472;52.170;20.884;2023-04-15T01:18:56;99639.22;;;11.49;82.90
21276;BME280;36472;52.170;20.884;2023-04-15T01:21:25;99641.91;;;11.38;84.21
21276;BME280;36472;52.170;20.884;2023-04-15T01:23:55;99651.94;;;11.33;84.68
21276;BME280;36472;52.170;20.884;2023-04-15T01:26:26;99648.84;;;11.28;85.88
21276;BME280;36472;52.170;20.884;2023-04-15T01:28:55;99647.06;;;11.28;85.70
21276;BME280;36472;52.170;20.884;2023-04-15T01:31:24;99650.28;;;11.32;85.85
21276;BME280;36472;52.170;20.884;2023-04-15T01:33:54;99638.69;;;11.23;86.40
21276;BME280;36472;52.170;20.884;2023-04-15T01:36:41;99639.03;;;11.30;86.66
21276;BME280;36472;52.170;20.884;2023-04-15T01:39:10;99644.66;;;11.36;86.84
21276;BME280;36472;52.170;20.884;2023-04-15T01:41:41;99647.06;;;11.28;87.39
21276;BME280;36472;52.170;20.884;2023-04-15T01:44:11;99647.28;;;11.25;88.39
21276;BME280;36472;52.170;20.884;2023-04-15T01:46:41;99641.81;;;11.17;89.29
21276;BME280;36472;52.170;20.884;2023-04-15T01:49:11;99638.00;;;11.10;90.65
21276;BME280;36472;52.170;20.884;2023-04-15T01:51:41;99635.59;;;11.07;91.48
21276;BME280;36472;52.170;20.884;2023-04-15T01:54:11;99642.06;;;11.02;92.01
21276;BME280;36472;52.170;20.884;2023-04-15T01:56:42;99644.59;;;10.93;92.82
21276;BME280;36472;52.170;20.884;2023-04-15T01:59:13;99639.09;;;10.84;93.37
21276;BME280;36472;52.170;20.884;2023-04-15T02:01:43;99639.09;;;10.84;94.07
21276;BME280;36472;52.170;20.884;2023-04-15T02:04:14;99639.34;;;10.81;94.28
21276;BME280;36472;52.170;20.884;2023-04-15T02:06:45;99635.88;;;10.81;94.59
21276;BME280;36472;52.170;20.884;2023-04-15T02:09:15;99645.78;;;10.77;94.89
21276;BME280;36472;52.170;20.884;2023-04-15T02:11:48;99632.66;;;10.77;95.54
21276;BME280;36472;52.170;20.884;2023-04-15T02:14:19;99637.53;;;10.71;95.70
21276;BME280;36472;52.170;20.884;2023-04-15T02:16:49;99628.94;;;10.69;96.71
21276;BME280;36472;52.170;20.884;2023-04-15T02:19:19;99639.47;;;10.69;97.10
21276;BME280;36472;52.170;20.884;2023-04-15T02:21:49;99626.91;;;10.72;97.09
21276;BME280;36472;52.170;20.884;2023-04-15T02:24:19;99641.03;;;10.71;96.13
21276;BME280;36472;52.170;20.884;2023-04-15T02:26:51;99634.31;;;10.67;97.21
21276;BME280;36472;52.170;20.884;2023-04-15T02:29:23;99640.56;;;10.66;97.48
21276;BME280;36472;52.170;20.884;2023-04-15T02:31:53;99634.31;;;10.67;97.06
21276;BME280;36472;52.170;20.884;2023-04-15T02:34:23;99636.94;;;10.67;97.40
21276;BME280;36472;52.170;20.884;2023-04-15T02:36:57;99640.41;;;10.56;98.40
21276;BME280;36472;52.170;20.884;2023-04-15T02:39:28;99636.22;;;10.54;98.79
21276;BME280;36472;52.170;20.884;2023-04-15T02:41:59;99634.94;;;10.59;99.04
21276;BME280;36472;52.170;20.884;2023-04-15T02:44:30;99632.66;;;10.55;99.53
21276;BME280;36472;52.170;20.884;2023-04-15T02:47:03;99636.22;;;10.54;100.00
21276;BME280;36472;52.170;20.884;2023-04-15T02:49:35;99635.06;;;10.58;99.74
21276;BME280;36472;52.170;20.884;2023-04-15T02:52:06;99632.66;;;10.55;99.60
21276;BME280;36472;52.170;20.884;2023-04-15T02:54:36;99627.16;;;10.58;99.78
21276;BME280;36472;52.170;20.884;2023-04-15T02:57:07;99628.81;;;10.59;99.29
21276;BME280;36472;52.170;20.884;2023-04-15T02:59:39;99624.44;;;10.59;99.15
21276;BME280;36472;52.170;20.884;2023-04-15T03:02:40;99625.25;;;10.60;99.00
21276;BME280;36472;52.170;20.884;2023-04-15T03:05:12;99634.06;;;10.59;99.34
21276;BME280;36472;52.170;20.884;2023-04-15T03:07:51;99629.31;;;10.53;99.36
21276;BME280;36472;52.170;20.884;2023-04-15T03:10:22;99628.97;;;10.57;99.17
21276;BME280;36472;52.170;20.884;2023-04-15T03:12:53;99627.41;;;10.55;99.16
21276;BME280;36472;52.170;20.884;2023-04-15T03:15:25;99633.13;;;10.60;99.29
21276;BME280;36472;52.170;20.884;2023-04-15T03:17:56;99626.44;;;10.67;98.86
21276;BME280;36472;52.170;20.884;2023-04-15T03:20:26;99636.97;;;10.56;98.32
21276;BME280;36472;52.170;20.884;2023-04-15T03:22:56;99626.47;;;10.56;98.77
21276;BME280;36472;52.170;20.884;2023-04-15T03:25:27;99627.88;;;10.60;98.68
21276;BME280;36472;52.170;20.884;2023-04-15T03:27:59;99628.59;;;10.62;98.78
21276;BME280;36472;52.170;20.884;2023-04-15T03:30:29;99633.03;;;10.61;98.69
21276;BME280;36472;52.170;20.884;2023-04-15T03:32:59;99633.13;;;10.60;98.86
21276;BME280;36472;52.170;20.884;2023-04-15T03:35:30;99632.78;;;10.64;98.32
21276;BME280;36472;52.170;20.884;2023-04-15T03:38:00;99633.38;;;10.68;98.39
21276;BME280;36472;52.170;20.884;2023-04-15T03:40:30;99629.31;;;10.75;98.09
21276;BME280;36472;52.170;20.884;2023-04-15T03:43:02;99634.56;;;10.75;97.52
21276;BME280;36472;52.170;20.884;2023-04-15T03:45:32;99625.47;;;10.79;97.18
21276;BME280;36472;52.170;20.884;2023-04-15T03:48:03;99626.22;;;10.81;96.82
21276;BME280;36472;52.170;20.884;2023-04-15T03:50:45;99636.84;;;10.80;96.80
21276;BME280;36472;52.170;20.884;2023-04-15T03:53:15;99635.41;;;10.87;96.81
21276;BME280;36472;52.170;20.884;2023-04-15T03:55:49;99630.25;;;10.85;96.73
21276;BME280;36472;52.170;20.884;2023-04-15T03:58:20;99633.59;;;10.88;96.42
21276;BME280;36472;52.170;20.884;2023-04-15T04:00:50;99631.00;;;10.76;96.77
21276;BME280;36472;52.170;20.884;2023-04-15T04:03:20;99632.19;;;10.83;96.64
21276;BME280;36472;52.170;20.884;2023-04-15T04:05:51;99636.47;;;10.84;96.54
21276;BME280;36472;52.170;20.884;2023-04-15T04:08:21;99641.47;;;10.88;96.90
21276;BME280;36472;52.170;20.884;2023-04-15T04:10:51;99636.72;;;10.81;97.11
21276;BME280;36472;52.170;20.884;2023-04-15T04:13:22;99633.00;;;10.84;97.09
21276;BME280;36472;52.170;20.884;2023-04-15T04:15:52;99645.19;;;10.74;97.43
21276;BME280;36472;52.170;20.884;2023-04-15T04:18:22;99640.28;;;10.69;98.42
21276;BME280;36472;52.170;20.884;2023-04-15T04:20:53;99640.06;;;10.72;98.24
21276;BME280;36472;52.170;20.884;2023-04-15T04:23:24;99638.28;;;10.61;98.97
21276;BME280;36472;52.170;20.884;2023-04-15T04:25:54;99636.47;;;10.62;98.81
21276;BME280;36472;52.170;20.884;2023-04-15T04:28:25;99637.31;;;10.51;99.29
21276;BME280;36472;52.170;20.884;2023-04-15T04:30:56;99638.38;;;10.48;99.84
21276;BME280;36472;52.170;20.884;2023-04-15T04:33:26;99644.94;;;10.43;100.00
21276;BME280;36472;52.170;20.884;2023-04-15T04:35:56;99643.88;;;10.45;100.00
21276;BME280;36472;52.170;20.884;2023-04-15T04:38:26;99639.47;;;10.46;100.00
21276;BME280;36472;52.170;20.884;2023-04-15T04:40:56;99642.78;;;10.48;100.00
21276;BME280;36472;52.170;20.884;2023-04-15T04:43:28;99644.25;;;10.52;100.00
21276;BME280;36472;52.170;20.884;2023-04-15T04:45:58;99639.56;;;10.44;100.00
21276;BME280;36472;52.170;20.884;2023-04-15T04:48:28;99644.59;;;10.47;100.00
21276;BME280;36472;52.170;20.884;2023-04-15T04:50:58;99641.00;;;10.48;100.00
21276;BME280;36472;52.170;20.884;2023-04-15T04:53:28;99639.34;;;10.47;100.00
21276;BME280;36472;52.170;20.884;2023-04-15T04:55:58;99645.66;;;10.45;100.00
21276;BME280;36472;52.170;20.884;2023-04-15T04:58:30;99644.00;;;10.44;100.00
21276;BME280;36472;52.170;20.884;2023-04-15T05:01:00;99642.69;;;10.50;100.00
21276;BME280;36472;52.170;20.884;2023-04-15T05:03:31;99637.19;;;10.53;100.00
21276;BME280;36472;52.170;20.884;2023-04-15T05:06:01;99641.38;;;10.44;100.00
21276;BME280;36472;52.170;20.884;2023-04-15T05:08:33;99640.28;;;10.46;100.00
21276;BME280;36472;52.170;20.884;2023-04-15T05:11:05;99645.09;;;10.53;100.00
21276;BME280;36472;52.170;20.884;2023-04-15T05:13:36;99641.97;;;10.47;100.00
21276;BME280;36472;52.170;20.884;2023-04-15T05:16:07;99648.66;;;10.52;100.00
21276;BME280;36472;52.170;20.884;2023-04-15T05:18:37;99644.09;;;10.54;100.00
21276;BME280;36472;52.170;20.884;2023-04-15T05:21:07;99642.56;;;10.51;100.00
21276;BME280;36472;52.170;20.884;2023-04-15T05:23:37;99647.09;;;10.60;100.00
21276;BME280;36472;52.170;20.884;2023-04-15T05:26:07;99647.38;;;10.57;100.00
21276;BME280;36472;52.170;20.884;2023-04-15T05:28:39;99651.03;;;10.55;100.00
21276;BME280;36472;52.170;20.884;2023-04-15T05:31:09;99646.28;;;10.60;100.00
21276;BME280;36472;52.170;20.884;2023-04-15T05:33:39;99651.19;;;10.64;100.00
21276;BME280;36472;52.170;20.884;2023-04-15T05:36:09;99641.50;;;10.65;100.00
21276;BME280;36472;52.170;20.884;2023-04-15T05:38:39;99649.38;;;10.65;100.00
21276;BME280;36472;52.170;20.884;2023-04-15T05:41:10;99648.06;;;10.59;100.00
21276;BME280;36472;52.170;20.884;2023-04-15T05:43:41;99654.63;;;10.65;100.00
21276;BME280;36472;52.170;20.884;2023-04-15T05:46:12;99650.94;;;10.68;100.00
21276;BME280;36472;52.170;20.884;2023-04-15T05:48:42;99659.44;;;10.71;100.00
21276;BME280;36472;52.170;20.884;2023-04-15T05:51:12;99659.06;;;10.64;100.00
21276;BME280;36472;52.170;20.884;2023-04-15T05:53:42;99654.06;;;10.73;100.00
21276;BME280;36472;52.170;20.884;2023-04-15T05:56:13;99661.31;;;10.69;100.00
21276;BME280;36472;52.170;20.884;2023-04-15T05:58:45;99658.59;;;10.59;100.00
21276;BME280;36472;52.170;20.884;2023-04-15T06:01:15;99659.28;;;10.61;100.00
21276;BME280;36472;52.170;20.884;2023-04-15T06:03:45;99653.56;;;10.68;100.00
21276;BME280;36472;52.170;20.884;2023-04-15T06:06:16;99655.22;;;10.69;100.00
21276;BME280;36472;52.170;20.884;2023-04-15T06:08:46;99660.13;;;10.62;100.00
21276;BME280;36472;52.170;20.884;2023-04-15T06:11:16;99660.22;;;10.60;100.00
21276;BME280;36472;52.170;20.884;2023-04-15T06:13:48;99662.75;;;10.62;100.00
21276;BME280;36472;52.170;20.884;2023-04-15T06:16:18;99664.44;;;10.63;100.00
21276;BME280;36472;52.170;20.884;2023-04-15T06:18:48;99659.19;;;10.63;100.00
21276;BME280;36472;52.170;20.884;2023-04-15T06:21:18;99672.09;;;10.66;100.00
21276;BME280;36472;52.170;20.884;2023-04-15T06:23:49;99666.22;;;10.62;100.00
21276;BME280;36472;52.170;20.884;2023-04-15T06:26:19;99670.16;;;10.57;100.00
21276;BME280;36472;52.170;20.884;2023-04-15T06:28:50;99670.03;;;10.58;100.00
21276;BME280;36472;52.170;20.884;2023-04-15T06:31:20;99674.34;;;10.59;100.00
21276;BME280;36472;52.170;20.884;2023-04-15T06:33:50;99674.72;;;10.66;100.00
21276;BME280;36472;52.170;20.884;2023-04-15T06:36:20;99674.59;;;10.68;100.00
21276;BME280;36472;52.170;20.884;2023-04-15T06:38:50;99674.59;;;10.68;100.00
21276;BME280;36472;52.170;20.884;2023-04-15T06:41:20;99673.63;;;10.69;100.00
21276;BME280;36472;52.170;20.884;2023-04-15T06:43:52;99679.09;;;10.65;100.00
21276;BME280;36472;52.170;20.884;2023-04-15T06:46:22;99673.97;;;10.64;100.00
21276;BME280;36472;52.170;20.884;2023-04-15T06:48:52;99683.06;;;10.60;100.00
21276;BME280;36472;52.170;20.884;2023-04-15T06:51:22;99685.44;;;10.52;100.00
21276;BME280;36472;52.170;20.884;2023-04-15T06:53:54;99690.22;;;10.58;100.00
21276;BME280;36472;52.170;20.884;2023-04-15T06:56:25;99692.97;;;10.56;100.00
21276;BME280;36472;52.170;20.884;2023-04-15T06:58:56;99682.22;;;10.59;100.00
21276;BME280;36472;52.170;20.884;2023-04-15T07:01:27;99688.75;;;10.54;100.00
21276;BME280;36472;52.170;20.884;2023-04-15T07:03:57;99690.13;;;10.59;100.00
21276;BME280;36472;52.170;20.884;2023-04-15T07:06:27;99690.56;;;10.53;100.00
21276;BME280;36472;52.170;20.884;2023-04-15T07:08:57;99700.50;;;10.61;100.00
21276;BME280;36472;52.170;20.884;2023-04-15T07:11:28;99708.97;;;10.53;100.00
21276;BME280;36472;52.170;20.884;2023-04-15T07:13:59;99698.69;;;10.50;100.00
21276;BME280;36472;52.170;20.884;2023-04-15T07:16:30;99701.19;;;10.52;100.00
21276;BME280;36472;52.170;20.884;2023-04-15T07:19:00;99699.75;;;10.47;100.00
21276;BME280;36472;52.170;20.884;2023-04-15T07:21:31;99705.00;;;10.47;100.00
21276;BME280;36472;52.170;20.884;2023-04-15T07:24:01;99701.41;;;10.48;100.00
21276;BME280;36472;52.170;20.884;2023-04-15T07:26:31;99703.94;;;10.50;100.00
21276;BME280;36472;52.170;20.884;2023-04-15T07:29:02;99708.13;;;10.53;100.00
21276;BME280;36472;52.170;20.884;2023-04-15T07:31:32;99705.97;;;10.46;100.00
21276;BME280;36472;52.170;20.884;2023-04-15T07:34:05;99704.91;;;10.49;100.00
21276;BME280;36472;52.170;20.884;2023-04-15T07:36:35;99711.47;;;10.55;100.00
21276;BME280;36472;52.170;20.884;2023-04-15T07:39:05;99705.63;;;10.51;100.00
21276;BME280;36472;52.170;20.884;2023-04-15T07:41:36;99703.59;;;10.55;100.00
21276;BME280;36472;52.170;20.884;2023-04-15T07:44:07;99704.31;;;10.57;100.00
21276;BME280;36472;52.170;20.884;2023-04-15T07:46:37;99705.16;;;10.57;100.00
21276;BME280;36472;52.170;20.884;2023-04-15T07:49:08;99703.25;;;10.59;100.00
21276;BME280;36472;52.170;20.884;2023-04-15T07:51:38;99699.75;;;10.59;100.00
21276;BME280;36472;52.170;20.884;2023-04-15T07:54:08;99701.69;;;10.68;100.00
21276;BME280;36472;52.170;20.884;2023-04-15T07:56:38;99707.41;;;10.62;100.00
21276;BME280;36472;52.170;20.884;2023-04-15T07:59:10;99703.03;;;10.62;100.00
21276;BME280;36472;52.170;20.884;2023-04-15T08:01:40;99702.38;;;10.59;100.00
21276;BME280;36472;52.170;20.884;2023-04-15T08:04:11;99705.00;;;10.59;100.00
21276;BME280;36472;52.170;20.884;2023-04-15T08:06:42;99700.38;;;10.62;100.00
21276;BME280;36472;52.170;20.884;2023-04-15T08:09:12;99712.19;;;10.57;100.00
21276;BME280;36472;52.170;20.884;2023-04-15T08:11:43;99707.66;;;10.59;100.00
21276;BME280;36472;52.170;20.884;2023-04-15T08:14:14;99704.31;;;10.57;100.00
21276;BME280;36472;52.170;20.884;2023-04-15T08:16:44;99705.75;;;10.61;100.00
21276;BME280;36472;52.170;20.884;2023-04-15T08:19:14;99703.38;;;10.58;100.00
21276;BME280;36472;52.170;20.884;2023-04-15T08:21:45;99705.38;;;10.54;100.00
21276;BME280;36472;52.170;20.884;2023-04-15T08:24:15;99701.94;;;10.65;100.00
21276;BME280;36472;52.170;20.884;2023-04-15T08:26:45;99707.19;;;10.65;100.00
21276;BME280;36472;52.170;20.884;2023-04-15T08:29:16;99707.66;;;10.70;100.00
21276;BME280;36472;52.170;20.884;2023-04-15T08:31:47;99709.47;;;10.70;100.00
21276;BME280;36472;52.170;20.884;2023-04-15T08:34:17;99708.28;;;10.74;100.00
21276;BME280;36472;52.170;20.884;2023-04-15T08:36:47;99710.91;;;10.74;100.00
21276;BME280;36472;52.170;20.884;2023-04-15T08:39:18;99709.72;;;10.78;100.00
21276;BME280;36472;52.170;20.884;2023-04-15T08:41:57;99713.91;;;10.80;100.00
21276;BME280;36472;52.170;20.884;2023-04-15T08:44:34;99707.91;;;10.78;100.00
21276;BME280;36472;52.170;20.884;2023-04-15T08:47:07;99715.31;;;10.84;100.00
21276;BME280;36472;52.170;20.884;2023-04-15T08:49:39;99713.53;;;10.85;100.00
21276;BME280;36472;52.170;20.884;2023-04-15T08:52:10;99709.34;;;10.82;100.00
21276;BME280;36472;52.170;20.884;2023-04-15T08:54:40;99714.59;;;10.82;100.00
21276;BME280;36472;52.170;20.884;2023-04-15T08:57:11;99711.38;;;10.79;100.00
21276;BME280;36472;52.170;20.884;2023-04-15T08:59:42;99716.28;;;10.83;100.00
21276;BME280;36472;52.170;20.884;2023-04-15T09:02:13;99716.78;;;10.89;100.00
21276;BME280;36472;52.170;20.884;2023-04-15T09:04:44;99715.69;;;10.91;100.00
21276;BME280;36472;52.170;20.884;2023-04-15T09:07:14;99717.50;;;11.02;100.00
21276;BME280;36472;52.170;20.884;2023-04-15T09:09:44;99716.03;;;10.98;100.00
21276;BME280;36472;52.170;20.884;2023-04-15T09:12:15;99712.47;;;10.88;100.00
21276;BME280;36472;52.170;20.884;2023-04-15T09:14:47;99711.84;;;10.84;100.00
21276;BME280;36472;52.170;20.884;2023-04-15T09:17:19;99707.44;;;10.84;100.00
21276;BME280;36472;52.170;20.884;2023-04-15T09:20:06;99716.53;;;10.92;100.00
21276;BME280;36472;52.170;20.884;2023-04-15T09:22:38;99713.66;;;10.95;100.00
21276;BME280;36472;52.170;20.884;2023-04-15T09:25:27;99720.94;;;11.02;100.00
21276;BME280;36472;52.170;20.884;2023-04-15T09:28:00;99720.59;;;11.07;100.00
21276;BME280;36472;52.170;20.884;2023-04-15T09:30:31;99715.94;;;10.99;100.00
21276;BME280;36472;52.170;20.884;2023-04-15T09:33:03;99721.66;;;11.04;100.00
21276;BME280;36472;52.170;20.884;2023-04-15T09:35:36;99721.31;;;10.98;100.00
21276;BME280;36472;52.170;20.884;2023-04-15T09:38:09;99722.00;;;11.00;100.00
21276;BME280;36472;52.170;20.884;2023-04-15T09:40:40;99723.22;;;11.07;100.00
21276;BME280;36472;52.170;20.884;2023-04-15T09:43:11;99722.00;;;11.00;100.00
21276;BME280;36472;52.170;20.884;2023-04-15T09:45:48;99720.59;;;10.96;100.00
21276;BME280;36472;52.170;20.884;2023-04-15T09:48:20;99730.03;;;10.98;100.00
21276;BME280;36472;52.170;20.884;2023-04-15T09:50:50;99732.28;;;11.03;100.00
21276;BME280;36472;52.170;20.884;2023-04-15T09:53:23;99729.44;;;11.06;100.00
21276;BME280;36472;52.170;20.884;2023-04-15T09:55:55;99738.41;;;11.03;100.00
21276;BME280;36472;52.170;20.884;2023-04-15T09:58:28;99729.44;;;11.06;100.00
21276;BME280;36472;52.170;20.884;2023-04-15T10:01:03;99733.75;;;11.07;100.00
21276;BME280;36472;52.170;20.884;2023-04-15T10:03:34;99729.44;;;11.06;100.00
21276;BME280;36472;52.170;20.884;2023-04-15T10:06:05;99731.59;;;11.12;100.00
21276;BME280;36472;52.170;20.884;2023-04-15T10:08:36;99737.81;;;11.11;100.00
21276;BME280;36472;52.170;20.884;2023-04-15T10:11:07;99732.66;;;11.21;100.00
21276;BME280;36472;52.170;20.884;2023-04-15T10:13:38;99734.47;;;11.20;100.00
21276;BME280;36472;52.170;20.884;2023-04-15T10:16:12;99741.50;;;11.20;100.00
21276;BME280;36472;52.170;20.884;2023-04-15T10:18:46;99729.69;;;11.26;100.00
21276;BME280;36472;52.170;20.884;2023-04-15T10:21:18;99729.06;;;11.33;100.00
21276;BME280;36472;52.170;20.884;2023-04-15T10:23:49;99726.31;;;11.35;100.00
21276;BME280;36472;52.170;20.884;2023-04-15T10:26:21;99740.19;;;11.48;100.00
21276;BME280;36472;52.170;20.884;2023-04-15T10:28:52;99735.63;;;11.50;100.00
21276;BME280;36472;52.170;20.884;2023-04-15T10:31:24;99735.63;;;11.50;100.00
21276;BME280;36472;52.170;20.884;2023-04-15T10:33:55;99738.84;;;11.54;100.00
21276;BME280;36472;52.170;20.884;2023-04-15T10:36:27;99740.88;;;11.50;100.00
21276;BME280;36472;52.170;20.884;2023-04-15T10:38:57;99735.63;;;11.50;100.00
21276;BME280;36472;52.170;20.884;2023-04-15T10:41:28;99737.03;;;11.54;100.00
21276;BME280;36472;52.170;20.884;2023-04-15T10:44:01;99733.69;;;11.52;100.00
21276;BME280;36472;52.170;20.884;2023-04-15T10:46:39;99735.28;;;11.44;100.00
21276;BME280;36472;52.170;20.884;2023-04-15T10:49:12;99736.22;;;11.42;100.00
21276;BME280;36472;52.170;20.884;2023-04-15T10:51:44;99736.31;;;11.52;100.00
21276;BME280;36472;52.170;20.884;2023-04-15T10:54:29;99732.03;;;11.51;100.00
21276;BME280;36472;52.170;20.884;2023-04-15T10:57:12;99730.00;;;11.44;100.00
21276;BME280;36472;52.170;20.884;2023-04-15T11:00:08;99727.72;;;11.39;100.00
21276;BME280;36472;52.170;20.884;2023-04-15T11:02:46;99742.09;;;11.46;100.00
21276;BME280;36472;52.170;20.884;2023-04-15T11:05:19;99748.31;;;11.45;100.00
21276;BME280;36472;52.170;20.884;2023-04-15T11:07:52;99752.47;;;11.48;100.00
21276;BME280;36472;52.170;20.884;2023-04-15T11:10:51;99751.53;;;11.49;100.00
21276;BME280;36472;52.170;20.884;2023-04-15T11:13:27;99749.38;;;11.42;100.00
21276;BME280;36472;52.170;20.884;2023-04-15T11:16:01;99745.91;;;11.53;100.00
21276;BME280;36472;52.170;20.884;2023-04-15T11:18:33;99750.19;;;11.54;100.00
21276;BME280;36472;52.170;20.884;2023-04-15T11:21:06;99743.34;;;11.63;100.00
21276;BME280;36472;52.170;20.884;2023-04-15T11:23:39;99752.22;;;11.62;100.00
21276;BME280;36472;52.170;20.884;2023-04-15T11:26:12;99753.53;;;11.68;100.00
21276;BME280;36472;52.170;20.884;2023-04-15T11:28:44;99756.97;;;11.68;100.00
21276;BME280;36472;52.170;20.884;2023-04-15T11:31:17;99760.81;;;11.75;100.00
21276;BME280;36472;52.170;20.884;2023-04-15T11:33:56;99762.81;;;11.83;100.00
21276;BME280;36472;52.170;20.884;2023-04-15T11:36:29;99765.09;;;11.88;100.00
21276;BME280;36472;52.170;20.884;2023-04-15T11:39:00;99758.50;;;11.93;100.00
21276;BME280;36472;52.170;20.884;2023-04-15T11:41:30;99759.97;;;11.97;100.00
21276;BME280;36472;52.170;20.884;2023-04-15T11:44:00;99764.22;;;12.10;100.00
21276;BME280;36472;52.170;20.884;2023-04-15T11:46:30;99764.22;;;12.10;100.00
21276;BME280;36472;52.170;20.884;2023-04-15T11:49:02;99767.22;;;12.05;100.00
21276;BME280;36472;52.170;20.884;2023-04-15T11:51:34;99767.78;;;12.09;100.00
21276;BME280;36472;52.170;20.884;2023-04-15T11:54:03;99762.50;;;12.20;100.00
21276;BME280;36472;52.170;20.884;2023-04-15T11:56:32;99764.19;;;12.42;100.00
21276;BME280;36472;52.170;20.884;2023-04-15T11:59:01;99767.75;;;12.52;100.00
21276;BME280;36472;52.170;20.884;2023-04-15T12:01:31;99766.44;;;12.47;100.00
21276;BME280;36472;52.170;20.884;2023-04-15T12:04:10;99770.03;;;12.46;100.00
21276;BME280;36472;52.170;20.884;2023-04-15T12:06:40;99773.25;;;12.28;98.98
21276;BME280;36472;52.170;20.884;2023-04-15T12:09:11;99780.41;;;12.26;99.35
21276;BME280;36472;52.170;20.884;2023-04-15T12:11:43;99780.28;;;12.28;100.00
21276;BME280;36472;52.170;20.884;2023-04-15T12:14:24;99780.84;;;12.43;99.49
21276;BME280;36472;52.170;20.884;2023-04-15T12:16:55;99789.19;;;12.48;97.77
21276;BME280;36472;52.170;20.884;2023-04-15T12:19:29;99790.81;;;12.60;96.05
21276;BME280;36472;52.170;20.884;2023-04-15T12:22:01;99788.16;;;12.60;95.61
21276;BME280;36472;52.170;20.884;2023-04-15T12:24:31;99794.19;;;12.62;96.43
21276;BME280;36472;52.170;20.884;2023-04-15T12:27:05;99796.72;;;12.73;97.98
21276;BME280;36472;52.170;20.884;2023-04-15T12:29:36;99791.06;;;12.78;98.28
21276;BME280;36472;52.170;20.884;2023-04-15T12:32:08;99801.81;;;12.86;97.87
21276;BME280;36472;52.170;20.884;2023-04-15T12:34:41;99803.09;;;12.92;96.15
21276;BME280;36472;52.170;20.884;2023-04-15T12:37:11;99806.88;;;12.99;96.38
21276;BME280;36472;52.170;20.884;2023-04-15T12:39:42;99810.75;;;12.95;95.29
21276;BME280;36472;52.170;20.884;2023-04-15T12:42:12;99810.22;;;13.01;94.50
21276;BME280;36472;52.170;20.884;2023-04-15T12:44:41;99811.09;;;13.12;94.27
21276;BME280;36472;52.170;20.884;2023-04-15T12:47:10;99814.25;;;13.26;94.00
21276;BME280;36472;52.170;20.884;2023-04-15T12:49:42;99819.34;;;13.39;94.33
21276;BME280;36472;52.170;20.884;2023-04-15T12:52:12;99811.31;;;13.51;93.06
21276;BME280;36472;52.170;20.884;2023-04-15T12:54:41;99818.41;;;13.50;90.22
21276;BME280;36472;52.170;20.884;2023-04-15T12:57:10;99812.81;;;13.43;89.79
21276;BME280;36472;52.170;20.884;2023-04-15T12:59:39;99814.75;;;13.41;87.74
21276;BME280;36472;52.170;20.884;2023-04-15T13:02:08;99816.72;;;13.39;89.50
21276;BME280;36472;52.170;20.884;2023-04-15T13:04:37;99827.84;;;13.43;89.31
21276;BME280;36472;52.170;20.884;2023-04-15T13:07:07;99826.72;;;13.45;89.24